TimeMDT,TemperatureF,Dew PointF,Humidity,Sea Level PressureIn,VisibilityMPH,Wind Direction,Wind SpeedMPH,Gust SpeedMPH,PrecipitationIn,Events,Conditions,WindDirDegrees,DateUTC
12:53 AM,10.0,3.0,73,29.96,10.0,North,16.1,-,N/A,,Clear,360,2013-03-10 07:53:00
1:53 AM,9.0,3.0,77,30.00,10.0,North,13.8,-,N/A,,Clear,360,2013-03-10 08:53:00
3:53 AM,8.1,1.9,76,29.99,10.0,North,12.7,-,N/A,,Clear,350,2013-03-10 09:53:00
4:53 AM,7.0,1.9,80,30.02,10.0,North,9.2,-,N/A,,Clear,350,2013-03-10 10:53:00
5:53 AM,7.0,1.0,77,30.07,10.0,North,12.7,-,N/A,,Overcast,360,2013-03-10 11:53:00
6:53 AM,5.0,-0.0,80,30.10,10.0,Calm,Calm,-,N/A,,Partly Cloudy,0,2013-03-10 12:53:00
7:53 AM,3.9,-0.9,80,30.14,10.0,NNW,6.9,-,N/A,,Mostly Cloudy,330,2013-03-10 13:53:00
8:53 AM,9.0,1.0,70,30.13,10.0,North,18.4,27.6,N/A,,Mostly Cloudy,360,2013-03-10 14:53:00
9:53 AM,12.0,1.0,61,30.13,10.0,North,23.0,32.2,N/A,,Clear,10,2013-03-10 15:53:00
10:53 AM,15.1,1.0,54,30.15,10.0,North,24.2,31.1,N/A,,Clear,360,2013-03-10 16:53:00
11:53 AM,18.0,1.9,50,30.13,10.0,North,21.9,31.1,N/A,,Clear,10,2013-03-10 17:53:00
12:53 PM,19.9,3.9,50,30.11,10.0,NNW,13.8,26.5,N/A,,Clear,340,2013-03-10 18:53:00
1:53 PM,23.0,6.1,48,30.09,10.0,North,15.0,26.5,N/A,,Clear,360,2013-03-10 19:53:00
2:53 PM,24.1,7.0,48,30.09,10.0,North,13.8,26.5,N/A,,Overcast,10,2013-03-10 20:53:00
3:53 PM,25.0,7.0,46,30.10,10.0,NNE,15.0,23.0,N/A,,Scattered Clouds,20,2013-03-10 21:53:00
4:53 PM,24.1,8.1,51,30.13,10.0,NNE,13.8,-,N/A,,Scattered Clouds,20,2013-03-10 22:53:00
5:53 PM,23.0,9.0,55,30.15,10.0,North,9.2,21.9,N/A,,Scattered Clouds,350,2013-03-10 23:53:00
6:53 PM,19.9,9.0,62,30.19,10.0,North,15.0,-,N/A,,Partly Cloudy,360,2013-03-11 00:53:00
7:53 PM,16.0,7.0,68,30.25,10.0,NW,5.8,-,N/A,,Clear,320,2013-03-11 01:53:00
8:53 PM,14.0,7.0,74,30.23,10.0,North,8.1,-,N/A,,Clear,350,2013-03-11 02:53:00
9:53 PM,10.9,6.1,81,30.24,10.0,NNE,6.9,-,N/A,,Clear,20,2013-03-11 03:53:00
10:53 PM,10.0,6.1,84,30.23,10.0,NNE,4.6,-,N/A,,Clear,20,2013-03-11 04:53:00
11:53 PM,10.0,6.1,84,30.21,10.0,NE,9.2,-,N/A,,Clear,50,2013-03-11 05:53:00
12:53 AM,10.0,6.1,84,30.19,10.0,ENE,8.1,-,N/A,,Clear,60,2013-03-11 06:53:00